Time;durP1;ratioP1;P1;durP2;ratioP2;P2;SDS_P1;SDS_P2;PMS_P1;PMS_P2;Temp;Humidity;BMP_temperature;BMP_pressure;BME280_temperature;BME280_humidity;BME280_pressure;Samples;Min_cycle;Max_cycle;Signal;HPM_P1;HPM_P2
2021/10/10 00:00:37;;;;;;;;;;;9.40;95.70;;;;;;5115404;28;19956;-73
2021/10/10 00:03:02;;;;;;;;;;;9.40;95.70;;;;;;5115111;28;19911;-73
2021/10/10 00:05:28;;;;;;;;;;;9.40;95.60;;;;;;5114951;28;19908;-73
2021/10/10 00:07:53;;;;;;;;;;;9.40;95.60;;;;;;5097051;28;19911;-73
2021/10/10 00:10:19;;;;;;;;;;;9.40;95.70;;;;;;5115199;28;19904;-73
2021/10/10 00:12:44;;;;;;;;;;;9.40;95.60;;;;;;5114842;28;19988;-73
2021/10/10 00:15:11;;;;;;;;;;;9.40;95.60;;;;;;5115152;28;19904;-74
2021/10/10 00:17:37;;;;;;;;;;;9.40;95.70;;;;;;5096822;28;19998;-73
2021/10/10 00:20:03;;;;;;;;;;;9.40;95.60;;;;;;5114320;28;19973;-73
2021/10/10 00:22:29;;;;;;;;;;;9.40;95.70;;;;;;5114325;28;19908;-74
2021/10/10 00:24:54;;;;;;;;;;;9.40;95.70;;;;;;5096626;28;19968;-74
2021/10/10 00:27:21;;;;;;;;;;;9.40;95.60;;;;;;5114732;28;19904;-73
2021/10/10 00:29:47;;;;;;;;;;;9.40;95.60;;;;;;5096622;28;19926;-73
2021/10/10 00:32:12;;;;;;;;;;;9.40;95.60;;;;;;5114678;28;20352;-73
2021/10/10 00:34:38;;;;;;;;;;;9.30;95.60;;;;;;5114410;28;19904;-73
2021/10/10 00:37:03;;;;;;;;;;;9.30;95.60;;;;;;5114685;28;20387;-73
2021/10/10 00:39:29;;;;;;;;;;;9.30;95.60;;;;;;5114746;28;19911;-74
2021/10/10 00:41:54;;;;;;;;;;;9.20;95.60;;;;;;5114508;28;19907;-73
2021/10/10 00:44:19;;;;;;;;;;;9.20;95.60;;;;;;5114660;28;20386;-73
2021/10/10 00:46:45;;;;;;;;;;;9.10;95.60;;;;;;5114523;28;20326;-73
2021/10/10 00:49:10;;;;;;;;;;;9.10;95.70;;;;;;5114086;28;20352;-74
2021/10/10 00:51:38;;;;;;;;;;;9.10;95.70;;;;;;5114456;28;20413;-73
2021/10/10 00:54:04;;;;;;;;;;;9.10;95.70;;;;;;5114375;28;20370;-72
2021/10/10 00:56:30;;;;;;;;;;;9.00;95.70;;;;;;5096219;28;20002;-72
2021/10/10 00:58:57;;;;;;;;;;;9.00;95.70;;;;;;5114401;28;19903;-72
2021/10/10 01:01:23;;;;;;;;;;;9.00;95.70;;;;;;5114114;28;20338;-73
2021/10/10 01:03:48;;;;;;;;;;;8.90;95.70;;;;;;5113923;28;20384;-73
2021/10/10 01:06:15;;;;;;;;;;;8.90;95.70;;;;;;5114257;28;19907;-73
2021/10/10 01:08:40;;;;;;;;;;;8.90;95.70;;;;;;5114292;28;19903;-73
2021/10/10 01:11:06;;;;;;;;;;;8.90;95.70;;;;;;5095722;28;19911;-73
2021/10/10 01:13:31;;;;;;;;;;;8.90;95.60;;;;;;5113954;28;19968;-73
2021/10/10 01:15:57;;;;;;;;;;;8.80;95.70;;;;;;5114175;28;19904;-72
2021/10/10 01:18:23;;;;;;;;;;;8.80;95.70;;;;;;5095414;28;20336;-73
2021/10/10 01:20:50;;;;;;;;;;;8.80;95.60;;;;;;5114065;28;20340;-73
2021/10/10 01:23:15;;;;;;;;;;;8.80;95.60;;;;;;5114049;28;19907;-73
2021/10/10 01:25:41;;;;;;;;;;;8.80;95.60;;;;;;5096016;28;19926;-73
2021/10/10 01:28:06;;;;;;;;;;;8.80;95.60;;;;;;5114088;28;19910;-74
2021/10/10 01:30:32;;;;;;;;;;;8.70;95.70;;;;;;5095789;28;19904;-73
2021/10/10 01:32:58;;;;;;;;;;;8.70;95.70;;;;;;5115632;28;19912;-72
2021/10/10 01:35:23;;;;;;;;;;;8.70;95.70;;;;;;5118314;28;19909;-73
2021/10/10 01:37:49;;;;;;;;;;;8.70;95.70;;;;;;5118202;28;19903;-73
2021/10/10 01:40:14;;;;;;;;;;;8.70;95.70;;;;;;5118068;28;19915;-73
2021/10/10 01:42:40;;;;;;;;;;;8.70;95.70;;;;;;5118016;28;19904;-73
2021/10/10 01:45:15;;;;;;;;;;;8.70;95.70;;;;;;5117950;28;19910;-73
2021/10/10 01:47:40;;;;;;;;;;;8.70;95.70;;;;;;5118138;28;19954;-73
2021/10/10 01:50:06;;;;;;;;;;;8.70;95.70;;;;;;5117897;28;20257;-73
2021/10/10 01:52:32;;;;;;;;;;;8.60;95.60;;;;;;5117912;28;20390;-73
2021/10/10 01:54:57;;;;;;;;;;;8.60;95.60;;;;;;5099523;28;19904;-73
2021/10/10 01:57:23;;;;;;;;;;;8.60;95.70;;;;;;5099526;28;20375;-73
2021/10/10 01:59:48;;;;;;;;;;;8.60;95.60;;;;;;5117228;28;19911;-74
2021/10/10 02:02:14;;;;;;;;;;;8.60;95.70;;;;;;5117719;28;19908;-73
2021/10/10 02:04:39;;;;;;;;;;;8.60;95.70;;;;;;5117781;28;19910;-73
2021/10/10 02:07:04;;;;;;;;;;;8.60;95.60;;;;;;5117635;28;19937;-73
2021/10/10 02:09:30;;;;;;;;;;;8.60;95.60;;;;;;5117544;28;19904;-72
2021/10/10 02:11:55;;;;;;;;;;;8.50;95.50;;;;;;5117293;28;19918;-71
2021/10/10 02:14:21;;;;;;;;;;;8.50;95.50;;;;;;5117053;28;19984;-72
2021/10/10 02:16:46;;;;;;;;;;;8.50;95.60;;;;;;5117354;28;20334;-73
2021/10/10 02:19:11;;;;;;;;;;;8.40;95.60;;;;;;5117488;28;20343;-73
2021/10/10 02:21:37;;;;;;;;;;;8.40;95.60;;;;;;5117284;28;20261;-72
2021/10/10 02:24:02;;;;;;;;;;;8.40;95.60;;;;;;5117300;28;19982;-72
2021/10/10 02:26:28;;;;;;;;;;;8.40;95.60;;;;;;5117246;28;19961;-75
2021/10/10 02:28:53;;;;;;;;;;;8.40;95.60;;;;;;5116788;28;19903;-74
2021/10/10 02:31:19;;;;;;;;;;;8.40;95.60;;;;;;5098734;28;20344;-72
2021/10/10 02:33:44;;;;;;;;;;;8.40;95.50;;;;;;5117176;28;19908;-72
2021/10/10 02:36:10;;;;;;;;;;;8.40;95.50;;;;;;5117054;28;20324;-72
2021/10/10 02:38:36;;;;;;;;;;;8.40;95.50;;;;;;5116966;28;19904;-72
2021/10/10 02:41:01;;;;;;;;;;;8.40;95.50;;;;;;5098720;28;19914;-73
2021/10/10 02:43:26;;;;;;;;;;;8.40;95.50;;;;;;5115482;28;19998;-73
2021/10/10 02:45:52;;;;;;;;;;;8.40;95.50;;;;;;5116535;28;19994;-73
2021/10/10 02:48:17;;;;;;;;;;;8.40;95.40;;;;;;5116858;28;19949;-73
2021/10/10 02:50:43;;;;;;;;;;;8.40;95.40;;;;;;5117660;28;19904;-74
2021/10/10 02:53:09;;;;;;;;;;;8.40;95.30;;;;;;5116852;28;20371;-73
2021/10/10 02:55:34;;;;;;;;;;;8.40;95.30;;;;;;5116729;28;20287;-73
2021/10/10 02:57:59;;;;;;;;;;;8.40;95.30;;;;;;5116055;28;20370;-73
2021/10/10 03:00:25;;;;;;;;;;;8.40;95.30;;;;;;5116552;28;20322;-72
2021/10/10 03:02:50;;;;;;;;;;;8.40;95.30;;;;;;5116649;28;20413;-74
2021/10/10 03:05:16;;;;;;;;;;;8.40;95.30;;;;;;5116564;28;19912;-73
2021/10/10 03:07:41;;;;;;;;;;;8.40;95.30;;;;;;5116316;28;19904;-73
2021/10/10 03:10:07;;;;;;;;;;;8.40;95.20;;;;;;5116506;28;19903;-73
2021/10/10 03:12:32;;;;;;;;;;;8.40;95.20;;;;;;5115528;28;20011;-73
2021/10/10 03:14:58;;;;;;;;;;;8.40;95.20;;;;;;5116532;28;20344;-73
2021/10/10 03:17:23;;;;;;;;;;;8.30;95.20;;;;;;5116286;28;20364;-73
2021/10/10 03:19:49;;;;;;;;;;;8.30;95.20;;;;;;5116235;28;19948;-72
2021/10/10 03:22:14;;;;;;;;;;;8.30;95.30;;;;;;5116122;28;19998;-72
2021/10/10 03:24:39;;;;;;;;;;;8.20;95.30;;;;;;5116079;28;19904;-73
2021/10/10 03:27:05;;;;;;;;;;;8.20;95.30;;;;;;5115658;28;19907;-73
2021/10/10 03:29:30;;;;;;;;;;;8.20;95.40;;;;;;5097649;28;19903;-74
2021/10/10 03:31:56;;;;;;;;;;;8.20;95.40;;;;;;5115814;28;19918;-73
2021/10/10 03:34:21;;;;;;;;;;;8.20;95.40;;;;;;5097747;28;19904;-72
2021/10/10 03:36:46;;;;;;;;;;;8.10;95.40;;;;;;5115867;28;19903;-72
2021/10/10 03:39:12;;;;;;;;;;;8.20;95.40;;;;;;5115934;28;19904;-72
2021/10/10 03:41:37;;;;;;;;;;;8.10;95.30;;;;;;5115392;28;19904;-74
2021/10/10 03:44:03;;;;;;;;;;;8.10;95.30;;;;;;5115812;28;19994;-73
2021/10/10 03:46:28;;;;;;;;;;;8.10;95.30;;;;;;5115787;28;19961;-73
2021/10/10 03:48:54;;;;;;;;;;;8.10;95.40;;;;;;5115642;28;20279;-73
2021/10/10 03:51:19;;;;;;;;;;;8.00;95.40;;;;;;5115696;28;20356;-72
2021/10/10 03:56:29;;;;;;;;;;;8.00;95.40;;;;;;5114935;28;19910;-73
2021/10/10 03:58:54;;;;;;;;;;;8.00;95.40;;;;;;5115392;28;19907;-71
2021/10/10 04:01:21;;;;;;;;;;;8.00;95.50;;;;;;5115336;28;19903;-72
2021/10/10 04:03:47;;;;;;;;;;;7.90;95.50;;;;;;5115295;28;19904;-73
2021/10/10 04:06:12;;;;;;;;;;;8.00;95.50;;;;;;5115397;28;19953;-71
2021/10/10 04:08:43;;;;;;;;;;;8.00;95.50;;;;;;5115279;28;19904;-72
2021/10/10 04:11:09;;;;;;;;;;;8.00;95.50;;;;;;5114793;28;20314;-72
2021/10/10 04:13:34;;;;;;;;;;;8.00;95.40;;;;;;5115029;28;19920;-72
2021/10/10 04:16:00;;;;;;;;;;;8.00;95.40;;;;;;5115019;28;19907;-73
2021/10/10 04:18:25;;;;;;;;;;;7.90;95.40;;;;;;5115190;28;19903;-72
2021/10/10 04:20:51;;;;;;;;;;;7.90;95.40;;;;;;5115091;28;19948;-72
2021/10/10 04:23:16;;;;;;;;;;;8.00;95.40;;;;;;5115000;28;19903;-73
2021/10/10 04:25:41;;;;;;;;;;;7.90;95.40;;;;;;5114258;28;20006;-73
2021/10/10 04:28:07;;;;;;;;;;;7.90;95.40;;;;;;5096658;28;19951;-72
2021/10/10 04:30:32;;;;;;;;;;;7.90;95.40;;;;;;5114992;28;19904;-72
2021/10/10 04:32:58;;;;;;;;;;;7.90;95.40;;;;;;5096396;28;19912;-71
2021/10/10 04:35:23;;;;;;;;;;;7.80;95.30;;;;;;5096412;28;19904;-72
2021/10/10 04:37:49;;;;;;;;;;;7.80;95.60;;;;;;5114724;28;19903;-72
2021/10/10 04:40:14;;;;;;;;;;;7.80;95.40;;;;;;5114232;28;19908;-73
2021/10/10 04:42:39;;;;;;;;;;;7.80;95.40;;;;;;5114720;28;19904;-73
2021/10/10 04:45:06;;;;;;;;;;;7.80;95.40;;;;;;5096226;28;20002;-73
2021/10/10 04:47:31;;;;;;;;;;;7.80;95.40;;;;;;5114895;28;19904;-73
2021/10/10 04:49:58;;;;;;;;;;;7.80;95.40;;;;;;5114400;28;19911;-72
2021/10/10 04:52:23;;;;;;;;;;;7.80;95.30;;;;;;5114479;28;19911;-72
2021/10/10 04:54:49;;;;;;;;;;;7.80;95.30;;;;;;5113883;28;20003;-73
2021/10/10 04:57:15;;;;;;;;;;;7.80;95.20;;;;;;5114364;28;20063;-72
2021/10/10 04:59:48;;;;;;;;;;;7.80;95.20;;;;;;5096154;28;20386;-72
2021/10/10 05:02:13;;;;;;;;;;;7.80;95.20;;;;;;5114434;28;19986;-72
2021/10/10 05:04:39;;;;;;;;;;;7.70;95.20;;;;;;5114342;28;20419;-72
2021/10/10 05:07:04;;;;;;;;;;;7.70;95.20;;;;;;5113622;28;20301;-73
2021/10/10 05:09:29;;;;;;;;;;;7.60;95.20;;;;;;5095513;28;20417;-72
2021/10/10 05:11:55;;;;;;;;;;;7.60;95.30;;;;;;5114063;28;20385;-72
2021/10/10 05:14:20;;;;;;;;;;;7.60;95.30;;;;;;5114193;28;20398;-72
2021/10/10 05:16:46;;;;;;;;;;;7.60;95.30;;;;;;5114240;28;20275;-73
2021/10/10 05:19:11;;;;;;;;;;;7.60;95.30;;;;;;5114122;28;19943;-73
2021/10/10 05:21:37;;;;;;;;;;;7.60;95.20;;;;;;5114011;28;20336;-73
2021/10/10 05:24:02;;;;;;;;;;;7.60;95.20;;;;;;5113507;28;20407;-73
2021/10/10 05:26:28;;;;;;;;;;;7.60;95.20;;;;;;5114023;28;20245;-72
2021/10/10 05:28:53;;;;;;;;;;;7.60;95.10;;;;;;5114143;28;19950;-72
2021/10/10 05:31:18;;;;;;;;;;;7.60;95.10;;;;;;5095804;28;19911;-73
2021/10/10 05:33:44;;;;;;;;;;;7.60;95.10;;;;;;5095591;28;19912;-73
2021/10/10 05:36:09;;;;;;;;;;;7.60;95.10;;;;;;5114081;28;19903;-73
2021/10/10 05:38:35;;;;;;;;;;;7.60;95.10;;;;;;5113406;28;19912;-73
2021/10/10 05:41:01;;;;;;;;;;;7.60;95.10;;;;;;5114034;28;19911;-73
2021/10/10 05:43:27;;;;;;;;;;;7.60;95.00;;;;;;5113987;28;19904;-73
2021/10/10 05:45:52;;;;;;;;;;;7.60;95.00;;;;;;5114057;28;19929;-73
2021/10/10 05:48:18;;;;;;;;;;;7.60;95.00;;;;;;5113752;28;19903;-73
2021/10/10 05:50:43;;;;;;;;;;;7.60;95.00;;;;;;5113906;28;19903;-72
2021/10/10 05:53:09;;;;;;;;;;;7.60;95.00;;;;;;5113235;28;19918;-73
2021/10/10 05:55:37;;;;;;;;;;;7.60;95.00;;;;;;5113850;28;19914;-72
2021/10/10 05:58:03;;;;;;;;;;;7.50;95.00;;;;;;5113807;28;19930;-73
2021/10/10 06:00:29;;;;;;;;;;;7.50;95.10;;;;;;5113527;28;20330;-74
2021/10/10 06:02:54;;;;;;;;;;;7.50;95.10;;;;;;5113779;28;19998;-73
2021/10/10 06:05:20;;;;;;;;;;;7.50;95.10;;;;;;5113699;28;19904;-73
2021/10/10 06:07:45;;;;;;;;;;;7.50;95.10;;;;;;5113117;28;19947;-72
2021/10/10 06:10:11;;;;;;;;;;;7.50;95.10;;;;;;5113463;28;19947;-72
2021/10/10 06:12:37;;;;;;;;;;;7.60;95.10;;;;;;5113383;28;19971;-73
2021/10/10 06:15:04;;;;;;;;;;;7.60;95.10;;;;;;5113646;28;19904;-72
2021/10/10 06:17:33;;;;;;;;;;;7.60;95.10;;;;;;5113555;28;19903;-73
2021/10/10 06:19:59;;;;;;;;;;;7.60;95.10;;;;;;5117074;28;20391;-73
2021/10/10 06:22:24;;;;;;;;;;;7.70;94.90;;;;;;5116892;28;19904;-72
2021/10/10 06:24:50;;;;;;;;;;;7.70;95.00;;;;;;5117400;28;20010;-72
2021/10/10 06:27:17;;;;;;;;;;;7.70;95.00;;;;;;5117293;28;19930;-73
2021/10/10 06:29:47;;;;;;;;;;;7.70;95.00;;;;;;5117312;28;19904;-72
2021/10/10 06:32:12;;;;;;;;;;;7.70;94.90;;;;;;5117016;28;19911;-73
2021/10/10 06:34:38;;;;;;;;;;;7.70;94.90;;;;;;5117179;28;20309;-73
2021/10/10 06:37:03;;;;;;;;;;;7.80;94.90;;;;;;5098359;28;19903;-73
2021/10/10 06:39:29;;;;;;;;;;;7.90;94.90;;;;;;5116871;28;19904;-73
2021/10/10 06:41:54;;;;;;;;;;;7.90;94.90;;;;;;5117064;28;19914;-72
2021/10/10 06:44:21;;;;;;;;;;;7.90;94.80;;;;;;5116976;28;19904;-72
2021/10/10 06:46:46;;;;;;;;;;;8.00;94.80;;;;;;5116831;28;19904;-73
2021/10/10 06:49:12;;;;;;;;;;;8.00;94.80;;;;;;5116780;28;19904;-73
2021/10/10 06:51:38;;;;;;;;;;;8.00;94.90;;;;;;5116247;28;20002;-74
2021/10/10 06:54:03;;;;;;;;;;;8.10;94.80;;;;;;5116826;28;19982;-74
2021/10/10 06:56:29;;;;;;;;;;;8.10;94.80;;;;;;5116669;28;19995;-73
2021/10/10 06:58:54;;;;;;;;;;;8.20;94.80;;;;;;5116545;28;19945;-74
2021/10/10 07:01:20;;;;;;;;;;;8.20;94.80;;;;;;5116623;28;19903;-73
2021/10/10 07:03:45;;;;;;;;;;;8.30;94.80;;;;;;5116479;28;19958;-72
2021/10/10 07:06:10;;;;;;;;;;;8.30;94.80;;;;;;5116038;28;19910;-74
2021/10/10 07:08:36;;;;;;;;;;;8.40;94.90;;;;;;5116396;28;19904;-73
2021/10/10 07:11:01;;;;;;;;;;;8.50;95.00;;;;;;5098303;28;20288;-72
2021/10/10 07:13:27;;;;;;;;;;;8.60;95.00;;;;;;5115985;28;19920;-72
2021/10/10 07:15:54;;;;;;;;;;;8.70;94.90;;;;;;5116565;28;19908;-73
2021/10/10 07:18:39;;;;;;;;;;;8.80;94.90;;;;;;5116274;28;20010;-73
2021/10/10 07:26:40;;;;;;;;;;;9.10;94.80;;;;;;5084605;28;19904;-72
2021/10/10 07:29:06;;;;;;;;;;;9.20;94.90;;;;;;5116487;28;19903;-73
2021/10/10 07:31:31;;;;;;;;;;;9.30;94.80;;;;;;5115291;28;19904;-73
2021/10/10 07:33:57;;;;;;;;;;;9.40;94.80;;;;;;5115510;28;19953;-73
2021/10/10 07:36:22;;;;;;;;;;;9.40;94.80;;;;;;5097562;28;19904;-73
2021/10/10 07:38:48;;;;;;;;;;;9.50;94.80;;;;;;5115859;28;19903;-73
2021/10/10 07:41:14;;;;;;;;;;;9.60;94.80;;;;;;5115859;28;19904;-72
2021/10/10 07:43:41;;;;;;;;;;;9.60;94.80;;;;;;5115784;28;19913;-73
2021/10/10 07:46:09;;;;;;;;;;;9.70;94.80;;;;;;5115783;28;19904;-73
2021/10/10 07:48:35;;;;;;;;;;;9.80;94.80;;;;;;5115135;28;19952;-73
2021/10/10 07:51:01;;;;;;;;;;;9.80;94.80;;;;;;5097448;28;19907;-72
2021/10/10 07:53:26;;;;;;;;;;;9.90;94.80;;;;;;5115515;28;19981;-72
2021/10/10 07:55:52;;;;;;;;;;;10.00;94.80;;;;;;5115430;28;20018;-73
2021/10/10 07:58:17;;;;;;;;;;;10.10;94.90;;;;;;5097157;28;19947;-74
2021/10/10 08:00:43;;;;;;;;;;;10.20;94.90;;;;;;5115349;28;19904;-71
2021/10/10 08:03:08;;;;;;;;;;;10.20;94.90;;;;;;5114907;28;19904;-73
2021/10/10 08:05:38;;;;;;;;;;;10.30;94.90;;;;;;5115454;28;19961;-73
2021/10/10 08:08:03;;;;;;;;;;;10.30;94.90;;;;;;5115284;28;19904;-73
2021/10/10 08:10:29;;;;;;;;;;;10.40;94.90;;;;;;5115496;28;19911;-74
2021/10/10 08:12:54;;;;;;;;;;;10.50;94.90;;;;;;5114834;28;20411;-74
2021/10/10 08:15:20;;;;;;;;;;;10.60;95.00;;;;;;5115271;28;20276;-72
2021/10/10 08:17:45;;;;;;;;;;;10.70;95.00;;;;;;5114679;28;19908;-72
2021/10/10 08:20:11;;;;;;;;;;;10.80;95.00;;;;;;5115150;28;19948;-72
2021/10/10 08:22:37;;;;;;;;;;;10.90;95.00;;;;;;5114933;28;20403;-73
2021/10/10 08:25:07;;;;;;;;;;;11.00;95.00;;;;;;5114817;28;19911;-72
2021/10/10 08:27:33;;;;;;;;;;;11.10;95.00;;;;;;5115046;28;19986;-72
2021/10/10 08:29:58;;;;;;;;;;;11.20;95.00;;;;;;5114932;28;19911;-73
2021/10/10 08:32:24;;;;;;;;;;;11.20;95.00;;;;;;5114282;28;19912;-72
2021/10/10 08:34:49;;;;;;;;;;;11.30;95.00;;;;;;5096542;28;19910;-72
2021/10/10 08:37:14;;;;;;;;;;;11.40;95.00;;;;;;5114787;28;19908;-72
2021/10/10 08:39:40;;;;;;;;;;;11.50;95.00;;;;;;5114687;28;19903;-72
2021/10/10 08:42:08;;;;;;;;;;;11.50;95.00;;;;;;5113821;28;19918;-73
2021/10/10 08:44:37;;;;;;;;;;;11.60;95.00;;;;;;5114673;28;19904;-76
2021/10/10 08:47:06;;;;;;;;;;;11.70;95.00;;;;;;5113963;28;19954;-73
2021/10/10 08:49:32;;;;;;;;;;;11.80;95.00;;;;;;5114586;28;19904;-73
2021/10/10 08:52:02;;;;;;;;;;;11.90;95.00;;;;;;5114462;28;19915;-72
2021/10/10 08:54:28;;;;;;;;;;;12.00;95.00;;;;;;5114551;28;19903;-73
2021/10/10 08:56:53;;;;;;;;;;;12.10;95.00;;;;;;5114510;28;20367;-74
2021/10/10 08:59:23;;;;;;;;;;;12.20;95.00;;;;;;5114435;28;20393;-74
2021/10/10 09:01:50;;;;;;;;;;;12.30;95.00;;;;;;5113949;28;20022;-73
2021/10/10 09:04:15;;;;;;;;;;;12.50;95.00;;;;;;5114352;28;20380;-73
2021/10/10 09:06:41;;;;;;;;;;;12.60;95.10;;;;;;5114172;28;19929;-74
2021/10/10 09:09:41;;;;;;;;;;;12.70;95.10;;;;;;5114261;28;20272;-73
2021/10/10 09:12:10;;;;;;;;;;;12.70;95.00;;;;;;5059481;28;19914;-73
2021/10/10 09:14:48;;;;;;;;;;;12.80;95.10;;;;;;5114075;28;19927;-75
2021/10/10 09:17:23;;;;;;;;;;;12.80;95.20;;;;;;5114133;28;19908;-75
2021/10/10 09:19:50;;;;;;;;;;;12.90;95.30;;;;;;5114029;28;19910;-74
2021/10/10 09:22:16;;;;;;;;;;;12.90;95.20;;;;;;5114031;28;19915;-73
2021/10/10 09:24:41;;;;;;;;;;;13.00;95.30;;;;;;5114315;28;20294;-73
2021/10/10 09:27:10;;;;;;;;;;;13.10;95.20;;;;;;5114130;28;19914;-73
2021/10/10 09:29:39;;;;;;;;;;;13.10;95.20;;;;;;5113459;28;20318;-72
2021/10/10 09:32:09;;;;;;;;;;;13.20;95.20;;;;;;5113974;28;19943;-72
2021/10/10 09:34:35;;;;;;;;;;;13.30;95.20;;;;;;5113923;28;19903;-73
2021/10/10 09:37:05;;;;;;;;;;;13.40;95.20;;;;;;5114001;28;20366;-73
2021/10/10 09:39:34;;;;;;;;;;;13.40;95.20;;;;;;5114024;28;19904;-74
2021/10/10 09:42:00;;;;;;;;;;;13.60;95.20;;;;;;5113880;28;19956;-73
2021/10/10 09:44:31;;;;;;;;;;;13.70;95.10;;;;;;5113447;28;20054;-72
2021/10/10 09:46:57;;;;;;;;;;;13.80;95.10;;;;;;5113789;28;20007;-72
2021/10/10 09:49:25;;;;;;;;;;;13.80;95.10;;;;;;5113755;28;19976;-72
2021/10/10 09:52:10;;;;;;;;;;;13.90;95.10;;;;;;5095608;28;19946;-72
2021/10/10 09:54:50;;;;;;;;;;;13.80;95.10;;;;;;5117003;28;19937;-69
2021/10/10 09:57:16;;;;;;;;;;;13.80;95.20;;;;;;5099592;28;19954;-72
2021/10/10 09:59:41;;;;;;;;;;;13.70;95.20;;;;;;5117265;28;19951;-72
2021/10/10 10:02:07;;;;;;;;;;;13.70;95.20;;;;;;5117631;28;19903;-71
2021/10/10 10:04:52;;;;;;;;;;;13.60;95.20;;;;;;5117739;28;20375;-71
2021/10/10 10:07:19;;;;;;;;;;;13.50;95.20;;;;;;5098822;28;19903;-73
2021/10/10 10:09:50;;;;;;;;;;;13.40;95.20;;;;;;5117508;28;19910;-72
2021/10/10 10:12:16;;;;;;;;;;;13.40;95.60;;;;;;5117375;28;19934;-73
2021/10/10 10:14:42;;;;;;;;;;;13.50;95.30;;;;;;5117227;28;19912;-74
2021/10/10 10:17:07;;;;;;;;;;;13.50;95.40;;;;;;5117474;28;19927;-73
2021/10/10 10:19:33;;;;;;;;;;;13.60;95.30;;;;;;5117377;28;19903;-73
2021/10/10 10:21:58;;;;;;;;;;;13.60;95.30;;;;;;5117326;28;19903;-73
2021/10/10 10:24:25;;;;;;;;;;;13.60;95.30;;;;;;5117292;28;19991;-73
2021/10/10 10:26:51;;;;;;;;;;;13.70;95.30;;;;;;5117185;28;20351;-73
2021/10/10 10:29:23;;;;;;;;;;;13.70;95.30;;;;;;5116800;28;19904;-73
2021/10/10 10:31:49;;;;;;;;;;;13.80;95.30;;;;;;5117299;28;19949;-74
2021/10/10 10:34:31;;;;;;;;;;;13.90;95.30;;;;;;5117135;28;19912;-74
2021/10/10 10:36:56;;;;;;;;;;;13.90;95.30;;;;;;5117131;28;19926;-74
2021/10/10 10:39:31;;;;;;;;;;;14.00;95.30;;;;;;5117085;28;20344;-74
2021/10/10 10:41:57;;;;;;;;;;;14.10;95.30;;;;;;5116507;28;20367;-73
2021/10/10 10:44:33;;;;;;;;;;;14.20;95.30;;;;;;5098436;28;19930;-73
2021/10/10 10:47:08;;;;;;;;;;;14.30;95.30;;;;;;5117060;28;19903;-76
2021/10/10 10:49:52;;;;;;;;;;;14.40;95.30;;;;;;5116830;28;20253;-75
2021/10/10 10:52:25;;;;;;;;;;;14.40;95.30;;;;;;5116706;28;19998;-73
2021/10/10 10:54:54;;;;;;;;;;;14.50;95.30;;;;;;5116679;28;19903;-74
2021/10/10 10:57:29;;;;;;;;;;;14.60;95.30;;;;;;5116220;28;20352;-74
2021/10/10 11:00:05;;;;;;;;;;;14.70;95.30;;;;;;5116733;28;19950;-73
2021/10/10 11:02:50;;;;;;;;;;;14.80;95.30;;;;;;5116577;28;19910;-74
2021/10/10 11:05:34;;;;;;;;;;;14.90;95.30;;;;;;5115515;28;19951;-73
2021/10/10 11:08:00;;;;;;;;;;;15.00;95.30;;;;;;5116677;28;20029;-75
2021/10/10 11:10:27;;;;;;;;;;;15.00;95.40;;;;;;5116404;28;19907;-73
2021/10/10 11:12:56;;;;;;;;;;;15.00;95.40;;;;;;5115749;28;20000;-73
2021/10/10 11:15:22;;;;;;;;;;;15.00;95.40;;;;;;5116445;28;19948;-73
2021/10/10 11:17:55;;;;;;;;;;;15.10;95.40;;;;;;5098271;28;19933;-74
2021/10/10 11:20:21;;;;;;;;;;;15.10;95.40;;;;;;5116367;28;19904;-73
2021/10/10 11:22:47;;;;;;;;;;;15.20;95.50;;;;;;5116198;28;20393;-75
2021/10/10 11:25:12;;;;;;;;;;;15.20;95.50;;;;;;5116176;28;19903;-73
2021/10/10 11:27:38;;;;;;;;;;;15.20;95.40;;;;;;5115906;28;19904;-73
2021/10/10 11:30:05;;;;;;;;;;;15.30;95.50;;;;;;5116165;28;19949;-74
2021/10/10 11:32:31;;;;;;;;;;;15.30;95.40;;;;;;5116005;28;19911;-73
2021/10/10 11:34:58;;;;;;;;;;;15.30;95.40;;;;;;5115893;28;19911;-73
2021/10/10 11:37:23;;;;;;;;;;;15.30;95.50;;;;;;5115954;28;19934;-74
2021/10/10 11:39:49;;;;;;;;;;;15.40;95.60;;;;;;5115300;28;19904;-74
2021/10/10 11:42:14;;;;;;;;;;;15.40;95.50;;;;;;5115962;28;19998;-74
2021/10/10 11:44:40;;;;;;;;;;;15.50;95.60;;;;;;5115778;28;19986;-74
2021/10/10 11:47:08;;;;;;;;;;;15.50;95.60;;;;;;5115624;28;20139;-74
2021/10/10 11:49:56;;;;;;;;;;;15.60;95.60;;;;;;5115755;28;19926;-72
2021/10/10 11:52:30;;;;;;;;;;;15.60;95.70;;;;;;5115805;28;19912;-73
2021/10/10 11:57:52;;;;;;;;;;;15.80;95.80;;;;;;5115582;28;20272;-74
2021/10/10 12:00:22;;;;;;;;;;;15.80;95.70;;;;;;5115512;28;19911;-74
2021/10/10 12:02:47;;;;;;;;;;;15.90;95.70;;;;;;5115452;28;19931;-75
2021/10/10 12:05:14;;;;;;;;;;;16.00;95.70;;;;;;5097164;28;19903;-73
2021/10/10 12:07:41;;;;;;;;;;;16.10;95.70;;;;;;5115399;28;19911;-74
2021/10/10 12:10:08;;;;;;;;;;;16.00;95.70;;;;;;5114852;28;19998;-75
2021/10/10 12:12:34;;;;;;;;;;;16.10;95.80;;;;;;5096635;28;19922;-74
2021/10/10 12:15:00;;;;;;;;;;;16.10;95.70;;;;;;5115275;28;19911;-76
2021/10/10 12:17:36;;;;;;;;;;;16.30;95.80;;;;;;5114942;28;20314;-74
2021/10/10 12:20:22;;;;;;;;;;;16.40;95.70;;;;;;5115080;28;20368;-75
2021/10/10 12:22:52;;;;;;;;;;;16.50;95.60;;;;;;5114915;28;19957;-74
2021/10/10 12:25:26;;;;;;;;;;;16.60;95.70;;;;;;5096450;28;19910;-73
2021/10/10 12:27:55;;;;;;;;;;;16.70;95.80;;;;;;5114865;28;19903;-75
2021/10/10 12:30:24;;;;;;;;;;;16.80;95.90;;;;;;5114986;28;19910;-75
2021/10/10 12:32:49;;;;;;;;;;;16.90;96.20;;;;;;5114827;28;19911;-76
2021/10/10 12:35:15;;;;;;;;;;;17.20;95.90;;;;;;5114676;28;19908;-74
2021/10/10 12:37:50;;;;;;;;;;;17.50;95.80;;;;;;5114661;28;19961;-74
2021/10/10 12:40:22;;;;;;;;;;;17.70;95.60;;;;;;5114910;28;19998;-80
2021/10/10 12:42:49;;;;;;;;;;;18.00;95.50;;;;;;5114726;28;19904;-74
2021/10/10 12:45:30;;;;;;;;;;;18.10;95.30;;;;;;5114694;28;20017;-74
2021/10/10 12:47:56;;;;;;;;;;;18.20;95.20;;;;;;5114543;28;19995;-74
2021/10/10 12:50:21;;;;;;;;;;;18.20;95.30;;;;;;5114629;28;19911;-74
2021/10/10 12:52:48;;;;;;;;;;;18.30;95.40;;;;;;5113916;28;19912;-74
2021/10/10 12:55:29;;;;;;;;;;;18.50;95.30;;;;;;5114580;28;20408;-74
2021/10/10 12:57:56;;;;;;;;;;;18.70;95.20;;;;;;5114396;28;20282;-73
2021/10/10 13:00:22;;;;;;;;;;;18.90;95.10;;;;;;5114456;28;20260;-75
2021/10/10 13:02:49;;;;;;;;;;;19.00;95.00;;;;;;5114329;28;19948;-73
2021/10/10 13:05:16;;;;;;;;;;;19.30;95.00;;;;;;5114423;28;20363;-73
2021/10/10 13:07:41;;;;;;;;;;;19.40;94.80;;;;;;5113971;28;19908;-75
2021/10/10 13:10:07;;;;;;;;;;;19.20;94.20;;;;;;5114152;28;19913;-73
2021/10/10 13:12:32;;;;;;;;;;;18.70;94.10;;;;;;5113927;28;19915;-74
2021/10/10 13:14:58;;;;;;;;;;;18.30;94.50;;;;;;5114127;28;19916;-73
2021/10/10 13:17:23;;;;;;;;;;;18.20;94.90;;;;;;5114316;28;19904;-74
2021/10/10 13:19:49;;;;;;;;;;;18.30;95.10;;;;;;5114100;28;19908;-75
2021/10/10 13:22:14;;;;;;;;;;;18.40;95.10;;;;;;5113663;28;19904;-75
2021/10/10 13:24:41;;;;;;;;;;;18.30;94.60;;;;;;5114137;28;19904;-74
2021/10/10 13:27:06;;;;;;;;;;;17.90;94.40;;;;;;5114020;28;19961;-76
2021/10/10 13:29:31;;;;;;;;;;;17.50;94.70;;;;;;5113396;28;19904;-76
2021/10/10 13:31:57;;;;;;;;;;;17.30;94.90;;;;;;5114050;28;19904;-75
2021/10/10 13:34:23;;;;;;;;;;;17.10;95.00;;;;;;5095837;28;19904;-75
2021/10/10 13:36:49;;;;;;;;;;;17.00;95.30;;;;;;5113621;28;19911;-74
2021/10/10 13:39:14;;;;;;;;;;;17.20;95.50;;;;;;5114041;28;19904;-75
2021/10/10 13:41:40;;;;;;;;;;;17.50;95.40;;;;;;5113983;28;19903;-75
2021/10/10 13:44:06;;;;;;;;;;;17.80;95.10;;;;;;5113778;28;19956;-76
2021/10/10 13:46:33;;;;;;;;;;;17.80;95.00;;;;;;5095759;28;19903;-74
2021/10/10 13:48:59;;;;;;;;;;;17.70;94.80;;;;;;5113988;28;19903;-75
2021/10/10 13:51:24;;;;;;;;;;;17.40;94.70;;;;;;5113388;28;19911;-74
2021/10/10 13:53:50;;;;;;;;;;;17.10;94.80;;;;;;5113737;28;19912;-75
2021/10/10 13:56:15;;;;;;;;;;;16.80;95.00;;;;;;5113786;28;20349;-75
2021/10/10 13:58:41;;;;;;;;;;;16.50;95.20;;;;;;5113716;28;19903;-75
2021/10/10 14:01:06;;;;;;;;;;;16.30;95.40;;;;;;5113668;28;19903;-75
2021/10/10 14:03:32;;;;;;;;;;;16.20;95.50;;;;;;5113786;28;19957;-74
2021/10/10 14:05:58;;;;;;;;;;;16.10;95.50;;;;;;5113389;28;19903;-77
2021/10/10 14:08:24;;;;;;;;;;;16.00;95.60;;;;;;5095569;28;19911;-75
2021/10/10 14:10:50;;;;;;;;;;;15.90;95.60;;;;;;5113586;28;20310;-75
2021/10/10 14:13:16;;;;;;;;;;;15.90;95.80;;;;;;5113427;28;19916;-74
2021/10/10 14:15:42;;;;;;;;;;;16.10;95.80;;;;;;5113791;28;20040;-75
2021/10/10 14:18:08;;;;;;;;;;;16.30;95.70;;;;;;5113566;28;20356;-76
2021/10/10 14:20:33;;;;;;;;;;;16.50;95.50;;;;;;5094838;28;19911;-76
2021/10/10 14:22:58;;;;;;;;;;;16.70;95.30;;;;;;5113499;28;19933;-74
2021/10/10 14:25:24;;;;;;;;;;;16.90;95.20;;;;;;5113525;28;19904;-76
2021/10/10 14:27:50;;;;;;;;;;;17.00;95.10;;;;;;5113598;28;19910;-76
2021/10/10 14:30:15;;;;;;;;;;;17.20;95.10;;;;;;5113505;28;20274;-76
2021/10/10 14:32:42;;;;;;;;;;;17.30;95.00;;;;;;5094992;28;19965;-74